Impacts METAR Board INFO
IDs:

KSFO - San Francisco Intl, CA, US

Updated at: 0913 UTC 20 Jan 2018
Potential Impact None Slight Moderate High
Time19/21Z 19/22Z 19/23Z 20/00Z 20/01Z 20/02Z 20/03Z 20/04Z 20/05Z 20/06Z 20/07Z 20/08Z 20/09Z
VIS10 10 10 10 10 10 10 10 10 10 10 10 10
CIG46 75 150 150 180 -- -- -- -- -- -- -- --
CoverBKNBKNBKNBKNBKNSCTFEWFEWFEWCLRCLRCLRCLR
FltCatVFRVFRVFRVFRVFRVFRVFRVFRVFRVFRVFRVFRVFR
WX--------------------------
WDir310270280290280290290290290290280290260
WSpd9 11 13 13 14 12 10 11 8 8 6 3 7
WGst-- -- -- -- -- -- -- -- -- -- -- -- --
Raw hourly METARs
KSFO 192056Z 31009KT 10SM BKN046 13/06 A3010 RMK AO2 SLP191 T01330061 58013
KSFO 192156Z 27011KT 10SM SCT065 BKN075 BKN090 12/03 A3009 RMK AO2 SLP190 T01170033
KSFO 192256Z 28013KT 10SM FEW037 SCT070 BKN150 13/04 A3008 RMK AO2 SLP186 T01280044
KSFO 192356Z 29013KT 10SM FEW037 BKN150 12/03 A3007 RMK AO2 SLP183 T01220033 10139 20117 58008
KSFO 200056Z 28014KT 10SM FEW030 BKN180 12/04 A3007 RMK AO2 SLP182 T01170039
KSFO 200156Z 29012KT 10SM FEW027 FEW150 SCT200 11/04 A3008 RMK AO2 SLP184 T01060044
KSFO 200256Z 29010KT 10SM FEW025 10/04 A3008 RMK AO2 SLP185 T01000044 53002
KSFO 200356Z 29011KT 10SM FEW023 10/04 A3009 RMK AO2 SLP188 T01000044
KSFO 200456Z 29008KT 10SM FEW150 10/05 A3010 RMK AO2 SLP191 T01000050
KSFO 200556Z 29008KT 10SM CLR 09/04 A3010 RMK AO2 SLP194 T00940044 10122 20094 53009
KSFO 200656Z 28006KT 10SM CLR 09/04 A3011 RMK AO2 SLP197 T00890039
KSFO 200756Z 29003KT 10SM CLR 08/03 A3011 RMK AO2 SLP196 T00830033 401390083
KSFO 200856Z 26007KT 10SM CLR 08/04 A3011 RMK AO2 SLP196 T00830039 51002